Time;durP1;ratioP1;P1;durP2;ratioP2;P2;SDS_P1;SDS_P2;PMS_P1;PMS_P2;Temp;Humidity;BMP_temperature;BMP_pressure;BME280_temperature;BME280_humidity;BME280_pressure;Samples;Min_cycle;Max_cycle;Signal;HPM_P1;HPM_P2
2022/11/11 00:02:29;;;;;;;;;;;8.30;99.90;;;;;;5010653;28;20075;-72
2022/11/11 00:05:14;;;;;;;;;;;8.30;99.90;;;;;;5018433;28;19982;-72
2022/11/11 00:07:59;;;;;;;;;;;8.30;99.90;;;;;;5014523;28;19933;-72
2022/11/11 00:10:45;;;;;;;;;;;8.30;99.90;;;;;;5006140;28;19932;-72
2022/11/11 00:13:31;;;;;;;;;;;8.30;99.90;;;;;;5018988;28;19951;-72
2022/11/11 00:16:19;;;;;;;;;;;8.20;99.90;;;;;;5013482;28;19941;-72
2022/11/11 00:25:16;;;;;;;;;;;8.20;99.90;;;;;;5019595;28;19975;-72
2022/11/11 00:28:01;;;;;;;;;;;8.10;99.90;;;;;;5018764;28;20131;-72
2022/11/11 00:30:47;;;;;;;;;;;8.10;99.90;;;;;;5010074;28;20071;-72
2022/11/11 00:33:33;;;;;;;;;;;8.10;99.90;;;;;;5025715;28;19932;-72
2022/11/11 00:36:18;;;;;;;;;;;8.20;99.90;;;;;;5022371;28;20506;-72
2022/11/11 00:39:03;;;;;;;;;;;8.10;99.90;;;;;;5027565;28;19936;-72
2022/11/11 00:41:48;;;;;;;;;;;8.10;99.90;;;;;;5023049;28;20414;-72
2022/11/11 00:44:33;;;;;;;;;;;8.10;99.90;;;;;;5023369;28;20027;-72
2022/11/11 00:53:30;;;;;;;;;;;8.10;99.90;;;;;;5025764;28;20516;-72
2022/11/11 00:56:15;;;;;;;;;;;8.10;99.90;;;;;;5024936;28;20394;-72
2022/11/11 00:59:00;;;;;;;;;;;8.10;99.90;;;;;;5021474;28;20052;-72
2022/11/11 01:01:46;;;;;;;;;;;8.10;99.90;;;;;;5024255;28;19940;-72
2022/11/11 01:04:31;;;;;;;;;;;8.10;99.90;;;;;;5019875;28;20423;-72
2022/11/11 01:07:18;;;;;;;;;;;8.10;99.90;;;;;;5022208;28;19933;-72
2022/11/11 01:10:03;;;;;;;;;;;8.10;99.90;;;;;;5018433;28;19936;-72
2022/11/11 01:12:48;;;;;;;;;;;8.10;99.90;;;;;;5025376;28;20416;-72
2022/11/11 01:15:34;;;;;;;;;;;8.00;99.90;;;;;;5021274;28;20441;-72
2022/11/11 01:18:21;;;;;;;;;;;8.00;99.90;;;;;;5019271;28;19940;-72
2022/11/11 01:21:07;;;;;;;;;;;7.90;99.90;;;;;;4997814;28;19951;-72
2022/11/11 01:23:54;;;;;;;;;;;7.90;99.90;;;;;;5023001;28;20402;-73
2022/11/11 01:26:39;;;;;;;;;;;7.90;99.90;;;;;;5021767;28;20514;-72
2022/11/11 01:29:24;;;;;;;;;;;7.90;99.90;;;;;;5017632;28;19937;-72
2022/11/11 01:32:09;;;;;;;;;;;7.90;99.90;;;;;;5018284;28;19936;-72
2022/11/11 01:34:55;;;;;;;;;;;7.90;99.90;;;;;;5026196;28;19955;-72
2022/11/11 01:37:41;;;;;;;;;;;7.90;99.90;;;;;;5015342;28;19987;-72
2022/11/11 01:40:27;;;;;;;;;;;7.90;99.90;;;;;;5016673;28;20018;-72
2022/11/11 01:43:18;;;;;;;;;;;7.80;99.90;;;;;;5021743;28;19937;-72
2022/11/11 01:46:03;;;;;;;;;;;7.80;99.90;;;;;;5018641;28;19964;-72
2022/11/11 01:51:57;;;;;;;;;;;7.80;99.90;;;;;;5021270;28;19936;-72
2022/11/11 01:54:43;;;;;;;;;;;7.80;99.90;;;;;;5023178;28;20110;-72
2022/11/11 01:57:32;;;;;;;;;;;7.90;99.90;;;;;;5023702;28;19932;-72
2022/11/11 02:00:18;;;;;;;;;;;7.80;99.90;;;;;;5017407;28;20315;-72
2022/11/11 02:03:05;;;;;;;;;;;7.80;99.90;;;;;;5012331;28;19932;-72
2022/11/11 02:05:54;;;;;;;;;;;7.80;99.90;;;;;;5019679;28;19932;-72
2022/11/11 02:08:39;;;;;;;;;;;7.80;99.90;;;;;;5020054;28;19972;-72
2022/11/11 02:14:36;;;;;;;;;;;7.70;99.90;;;;;;5019226;28;19928;-73
2022/11/11 02:17:21;;;;;;;;;;;7.70;99.90;;;;;;5017175;28;21548;-72
2022/11/11 02:20:08;;;;;;;;;;;7.70;99.90;;;;;;5022306;28;20040;-72
2022/11/11 02:22:57;;;;;;;;;;;7.70;99.90;;;;;;5020721;28;19936;-72
2022/11/11 02:25:46;;;;;;;;;;;7.60;99.90;;;;;;5017233;28;19933;-72
2022/11/11 02:28:32;;;;;;;;;;;7.60;99.90;;;;;;5015138;28;19948;-72
2022/11/11 02:31:18;;;;;;;;;;;7.60;99.90;;;;;;5013780;28;19933;-72
2022/11/11 02:34:03;;;;;;;;;;;7.50;99.90;;;;;;5022505;28;19956;-72
2022/11/11 02:36:48;;;;;;;;;;;7.50;99.90;;;;;;5021884;28;20290;-73
2022/11/11 02:39:34;;;;;;;;;;;7.50;99.90;;;;;;5018764;28;19999;-72
2022/11/11 02:42:21;;;;;;;;;;;7.50;99.90;;;;;;5015017;28;19932;-72
2022/11/11 02:45:07;;;;;;;;;;;7.50;99.90;;;;;;5022235;28;20407;-72
2022/11/11 02:47:52;;;;;;;;;;;7.50;99.90;;;;;;5020101;28;20019;-72
2022/11/11 02:50:38;;;;;;;;;;;7.50;99.90;;;;;;5023712;28;19932;-73
2022/11/11 02:53:24;;;;;;;;;;;7.50;99.90;;;;;;5024594;28;19940;-72
2022/11/11 02:56:09;;;;;;;;;;;7.50;99.90;;;;;;5012469;28;20569;-71
2022/11/11 02:58:56;;;;;;;;;;;7.50;99.90;;;;;;5024414;28;19946;-72
2022/11/11 03:01:41;;;;;;;;;;;7.50;99.90;;;;;;5021848;28;19948;-73
2022/11/11 03:04:26;;;;;;;;;;;7.50;99.90;;;;;;5020722;28;19932;-72
2022/11/11 03:07:11;;;;;;;;;;;7.50;99.90;;;;;;5022151;28;20433;-72
2022/11/11 03:09:56;;;;;;;;;;;7.50;99.90;;;;;;5025009;28;19932;-72
2022/11/11 03:12:42;;;;;;;;;;;7.50;99.90;;;;;;5025539;28;19932;-72
2022/11/11 03:15:29;;;;;;;;;;;7.50;99.90;;;;;;5017379;28;20016;-72
2022/11/11 03:18:13;;;;;;;;;;;7.50;99.90;;;;;;5017936;28;20447;-72
2022/11/11 03:21:04;;;;;;;;;;;7.50;99.90;;;;;;5021257;28;19928;-73
2022/11/11 03:23:49;;;;;;;;;;;7.50;99.90;;;;;;5015858;28;19932;-73
2022/11/11 03:26:35;;;;;;;;;;;7.50;99.90;;;;;;5024347;28;20022;-72
2022/11/11 03:29:20;;;;;;;;;;;7.50;99.90;;;;;;5015782;28;19937;-72
2022/11/11 03:32:07;;;;;;;;;;;7.50;99.90;;;;;;5012482;28;20434;-72
2022/11/11 03:34:53;;;;;;;;;;;7.40;99.90;;;;;;5015632;28;19957;-72
2022/11/11 03:40:42;;;;;;;;;;;7.40;99.90;;;;;;5014760;28;20518;-72
2022/11/11 03:43:28;;;;;;;;;;;7.40;99.90;;;;;;5016942;28;20090;-74
2022/11/11 03:46:14;;;;;;;;;;;7.40;99.90;;;;;;5021565;28;20071;-72
2022/11/11 03:49:00;;;;;;;;;;;7.40;99.90;;;;;;5021551;28;20437;-71
2022/11/11 03:51:45;;;;;;;;;;;7.30;99.90;;;;;;5014060;28;19936;-73
2022/11/11 03:54:31;;;;;;;;;;;7.30;99.90;;;;;;5018801;28;19932;-72
2022/11/11 03:57:31;;;;;;;;;;;7.30;99.90;;;;;;5015987;28;19932;-72
2022/11/11 04:00:17;;;;;;;;;;;7.30;99.90;;;;;;5022334;28;19932;-72
2022/11/11 04:12:21;;;;;;;;;;;7.20;99.90;;;;;;5010814;28;19971;-72
2022/11/11 04:18:10;;;;;;;;;;;7.20;99.90;;;;;;5016853;28;19929;-73
2022/11/11 04:24:01;;;;;;;;;;;7.20;99.90;;;;;;5020104;28;19990;-73
2022/11/11 04:26:45;;;;;;;;;;;7.20;99.90;;;;;;5016289;28;19995;-72
2022/11/11 04:29:31;;;;;;;;;;;7.20;99.90;;;;;;5020574;28;19991;-72
2022/11/11 04:32:37;;;;;;;;;;;7.10;99.90;;;;;;5019375;28;19932;-72
2022/11/11 04:35:23;;;;;;;;;;;7.10;99.90;;;;;;5028519;28;19931;-72
2022/11/11 04:41:13;;;;;;;;;;;7.10;99.90;;;;;;5018447;28;19979;-72
2022/11/11 04:47:01;;;;;;;;;;;7.10;99.90;;;;;;5020206;28;20338;-72
2022/11/11 04:49:46;;;;;;;;;;;7.10;99.90;;;;;;5011308;28;20413;-72
2022/11/11 04:52:32;;;;;;;;;;;7.10;99.90;;;;;;5017892;28;19937;-72
2022/11/11 04:58:22;;;;;;;;;;;7.00;99.90;;;;;;5021827;28;20012;-72
2022/11/11 05:01:08;;;;;;;;;;;7.00;99.90;;;;;;5012352;28;19937;-72
2022/11/11 05:03:52;;;;;;;;;;;7.00;99.90;;;;;;5012639;28;19933;-72
2022/11/11 05:09:40;;;;;;;;;;;7.00;99.90;;;;;;5008828;28;19971;-76
2022/11/11 05:12:25;;;;;;;;;;;7.00;99.90;;;;;;5013410;28;19957;-76
2022/11/11 05:21:22;;;;;;;;;;;6.90;99.90;;;;;;5021030;28;19929;-72
2022/11/11 05:27:11;;;;;;;;;;;6.90;99.90;;;;;;5018840;28;20446;-75
2022/11/11 05:29:56;;;;;;;;;;;6.90;99.90;;;;;;5021650;28;19931;-72
2022/11/11 05:32:43;;;;;;;;;;;6.90;99.90;;;;;;5013955;28;19933;-72
2022/11/11 05:35:29;;;;;;;;;;;6.90;99.90;;;;;;5015545;28;19932;-73
2022/11/11 05:38:20;;;;;;;;;;;6.80;99.90;;;;;;5015371;28;20409;-72
2022/11/11 05:41:06;;;;;;;;;;;6.90;99.90;;;;;;5019833;28;20409;-72
2022/11/11 05:43:51;;;;;;;;;;;6.90;99.90;;;;;;5013007;28;20014;-75
2022/11/11 05:46:36;;;;;;;;;;;6.90;99.90;;;;;;5016936;28;20003;-77
2022/11/11 05:49:23;;;;;;;;;;;6.80;99.90;;;;;;5016431;28;19955;-74
2022/11/11 05:52:09;;;;;;;;;;;6.80;99.90;;;;;;5014597;28;19940;-73
2022/11/11 05:54:54;;;;;;;;;;;6.80;99.90;;;;;;5019029;28;20010;-73
2022/11/11 05:57:40;;;;;;;;;;;6.80;99.90;;;;;;5013444;28;19932;-73
2022/11/11 06:00:25;;;;;;;;;;;6.80;99.90;;;;;;5013571;28;20385;-74
2022/11/11 06:03:11;;;;;;;;;;;6.80;99.90;;;;;;5076919;22;20017;-73
2022/11/11 06:05:58;;;;;;;;;;;6.80;99.90;;;;;;5034886;28;19939;-72
2022/11/11 06:08:43;;;;;;;;;;;6.80;99.90;;;;;;5024528;28;20797;-72
2022/11/11 06:11:28;;;;;;;;;;;6.70;99.90;;;;;;5032903;28;19935;-76
2022/11/11 06:14:14;;;;;;;;;;;6.70;99.90;;;;;;5031791;28;20390;-73
2022/11/11 06:17:01;;;;;;;;;;;6.70;99.90;;;;;;5030571;28;19939;-90
2022/11/11 06:19:46;;;;;;;;;;;6.70;99.90;;;;;;5019423;28;20010;-72
2022/11/11 06:28:50;;;;;;;;;;;6.50;99.90;;;;;;5032490;28;19932;-73
2022/11/11 06:31:35;;;;;;;;;;;6.40;99.90;;;;;;5033532;28;19940;-73
2022/11/11 06:34:20;;;;;;;;;;;6.40;99.90;;;;;;5040565;28;19932;-73
2022/11/11 06:37:05;;;;;;;;;;;6.40;99.90;;;;;;5035406;28;19932;-73
2022/11/11 06:39:52;;;;;;;;;;;6.50;99.90;;;;;;5034274;28;20034;-73
2022/11/11 06:42:38;;;;;;;;;;;6.50;99.90;;;;;;5045781;28;20014;-73
2022/11/11 06:45:23;;;;;;;;;;;6.40;99.90;;;;;;5043725;28;19940;-73
2022/11/11 06:48:09;;;;;;;;;;;6.50;99.90;;;;;;5041219;28;19940;-72
2022/11/11 06:50:54;;;;;;;;;;;6.40;99.90;;;;;;5042535;28;19947;-73
2022/11/11 06:53:39;;;;;;;;;;;6.40;99.90;;;;;;5041514;28;20520;-73
2022/11/11 06:56:26;;;;;;;;;;;6.40;99.90;;;;;;5038067;28;19932;-73
2022/11/11 06:59:12;;;;;;;;;;;6.40;99.90;;;;;;5044126;28;19931;-73
2022/11/11 07:01:57;;;;;;;;;;;6.40;99.90;;;;;;5041705;28;20606;-73
2022/11/11 07:04:42;;;;;;;;;;;6.40;99.90;;;;;;5043192;28;19951;-72
2022/11/11 07:07:27;;;;;;;;;;;6.40;99.90;;;;;;5040999;28;19932;-73
2022/11/11 07:10:14;;;;;;;;;;;6.40;99.90;;;;;;5040011;28;20014;-72
2022/11/11 07:13:00;;;;;;;;;;;6.40;99.90;;;;;;5040642;28;19934;-73
2022/11/11 07:15:46;;;;;;;;;;;6.40;99.90;;;;;;5038623;28;19932;-72
2022/11/11 07:18:31;;;;;;;;;;;6.40;99.90;;;;;;5045205;28;19936;-73
2022/11/11 07:21:17;;;;;;;;;;;6.40;99.90;;;;;;5037089;28;19952;-72
2022/11/11 07:24:02;;;;;;;;;;;6.40;99.90;;;;;;5033216;28;19936;-70
2022/11/11 07:26:48;;;;;;;;;;;6.40;99.90;;;;;;5037822;28;19932;-73
2022/11/11 07:29:35;;;;;;;;;;;6.40;99.90;;;;;;5040915;28;20007;-71
2022/11/11 07:32:20;;;;;;;;;;;6.40;99.90;;;;;;5028772;28;19978;-73
2022/11/11 07:35:05;;;;;;;;;;;6.40;99.90;;;;;;5034640;28;19932;-72
2022/11/11 07:37:50;;;;;;;;;;;6.40;99.90;;;;;;5040019;28;19931;-72
2022/11/11 07:40:35;;;;;;;;;;;6.40;99.90;;;;;;5042198;28;19932;-72
2022/11/11 07:43:20;;;;;;;;;;;6.40;99.90;;;;;;5043997;28;19955;-72
2022/11/11 07:46:07;;;;;;;;;;;6.30;99.90;;;;;;5040669;28;19933;-71
2022/11/11 07:48:52;;;;;;;;;;;6.30;99.90;;;;;;5041743;28;20022;-72
2022/11/11 07:51:38;;;;;;;;;;;6.40;99.90;;;;;;5041307;28;19935;-72
2022/11/11 07:54:24;;;;;;;;;;;6.30;99.90;;;;;;5041852;28;19935;-72
2022/11/11 07:57:09;;;;;;;;;;;6.30;99.90;;;;;;5042804;28;19979;-71
2022/11/11 07:59:54;;;;;;;;;;;6.30;99.90;;;;;;5041611;28;19932;-71
2022/11/11 08:02:46;;;;;;;;;;;6.30;99.90;;;;;;5040702;28;19947;-72
2022/11/11 08:05:31;;;;;;;;;;;6.30;99.90;;;;;;5034064;28;20066;-72
2022/11/11 08:08:16;;;;;;;;;;;6.30;99.90;;;;;;5035186;28;19932;-72
2022/11/11 08:11:02;;;;;;;;;;;6.30;99.90;;;;;;5036086;28;19943;-72
2022/11/11 08:13:49;;;;;;;;;;;6.30;99.90;;;;;;5034534;28;20438;-71
2022/11/11 08:16:34;;;;;;;;;;;6.30;99.90;;;;;;5029074;28;20124;-72
2022/11/11 08:19:21;;;;;;;;;;;6.40;99.90;;;;;;5032563;28;20007;-72
2022/11/11 08:22:06;;;;;;;;;;;6.40;99.90;;;;;;5035567;28;19994;-72
2022/11/11 08:24:52;;;;;;;;;;;6.50;99.90;;;;;;5031773;28;20302;-72
2022/11/11 08:27:37;;;;;;;;;;;6.50;99.90;;;;;;5036758;28;19931;-72
2022/11/11 08:30:22;;;;;;;;;;;6.50;99.90;;;;;;5031476;28;20026;-72
2022/11/11 08:33:07;;;;;;;;;;;6.50;99.90;;;;;;5030329;28;19940;-72
2022/11/11 08:35:55;;;;;;;;;;;6.50;99.90;;;;;;5032294;28;19982;-72
2022/11/11 08:38:40;;;;;;;;;;;6.50;99.90;;;;;;5033704;28;19931;-72
2022/11/11 08:41:26;;;;;;;;;;;6.50;99.90;;;;;;5027429;28;21803;-72
2022/11/11 08:44:11;;;;;;;;;;;6.50;99.90;;;;;;5039333;28;20290;-72
2022/11/11 08:46:56;;;;;;;;;;;6.50;99.90;;;;;;5040538;28;20014;-72
2022/11/11 08:49:42;;;;;;;;;;;6.60;99.90;;;;;;5036069;28;20647;-72
2022/11/11 08:52:28;;;;;;;;;;;6.60;99.90;;;;;;5031626;28;19932;-72
2022/11/11 08:55:14;;;;;;;;;;;6.60;99.90;;;;;;5036142;28;20638;-72
2022/11/11 08:58:00;;;;;;;;;;;6.60;99.90;;;;;;5031018;28;20027;-72
2022/11/11 09:00:45;;;;;;;;;;;6.60;99.90;;;;;;5038528;28;19947;-77
2022/11/11 09:03:30;;;;;;;;;;;6.60;99.90;;;;;;5040477;28;19935;-72
2022/11/11 09:06:16;;;;;;;;;;;6.60;99.90;;;;;;5036944;28;20055;-71
2022/11/11 09:09:03;;;;;;;;;;;6.60;99.90;;;;;;5034430;28;19970;-72
2022/11/11 09:11:48;;;;;;;;;;;6.60;99.90;;;;;;5037029;28;19932;-72
2022/11/11 09:14:33;;;;;;;;;;;6.60;99.90;;;;;;5029432;28;20495;-71
2022/11/11 09:17:19;;;;;;;;;;;6.70;99.90;;;;;;5035841;28;19975;-72
2022/11/11 09:20:04;;;;;;;;;;;6.70;99.90;;;;;;5032458;28;19986;-72
2022/11/11 09:22:51;;;;;;;;;;;6.70;99.90;;;;;;5034064;28;19995;-72
2022/11/11 09:25:38;;;;;;;;;;;6.70;99.90;;;;;;5035508;28;19940;-71
2022/11/11 09:28:24;;;;;;;;;;;6.70;99.90;;;;;;5036035;28;19935;-72
2022/11/11 09:31:09;;;;;;;;;;;6.70;99.90;;;;;;5033447;28;20334;-71
2022/11/11 09:33:55;;;;;;;;;;;6.70;99.90;;;;;;5040775;28;20054;-72
2022/11/11 09:36:40;;;;;;;;;;;6.80;99.90;;;;;;5034397;28;21237;-71
2022/11/11 09:39:26;;;;;;;;;;;6.80;99.90;;;;;;5038085;28;19935;-71
2022/11/11 09:42:17;;;;;;;;;;;6.80;99.90;;;;;;5034029;28;19932;-72
2022/11/11 09:45:08;;;;;;;;;;;6.80;99.90;;;;;;5030047;28;19939;-71
2022/11/11 09:47:58;;;;;;;;;;;6.80;99.90;;;;;;5039323;28;20006;-71
2022/11/11 09:50:53;;;;;;;;;;;6.80;99.90;;;;;;5041388;28;20414;-71
2022/11/11 09:53:40;;;;;;;;;;;6.80;99.90;;;;;;5032911;28;19931;-71
2022/11/11 09:56:27;;;;;;;;;;;6.80;99.90;;;;;;5029057;28;20078;-71
2022/11/11 09:59:16;;;;;;;;;;;6.80;99.90;;;;;;5038463;28;19985;-85
2022/11/11 10:02:02;;;;;;;;;;;6.80;99.90;;;;;;5035396;28;20226;-71
2022/11/11 10:04:52;;;;;;;;;;;6.80;99.90;;;;;;5042506;28;20071;-71
2022/11/11 10:07:41;;;;;;;;;;;6.80;99.90;;;;;;5033804;28;19971;-71
2022/11/11 10:10:29;;;;;;;;;;;6.80;99.90;;;;;;5033625;28;19967;-72
2022/11/11 10:13:16;;;;;;;;;;;6.90;99.90;;;;;;5038932;28;20302;-71
2022/11/11 10:16:06;;;;;;;;;;;6.90;99.90;;;;;;5024378;28;19970;-71
2022/11/11 10:19:02;;;;;;;;;;;6.90;99.90;;;;;;5027953;28;19936;-71
2022/11/11 10:21:49;;;;;;;;;;;6.90;99.90;;;;;;5028598;28;20006;-72
2022/11/11 10:24:37;;;;;;;;;;;6.90;99.90;;;;;;5029365;28;19932;-72
2022/11/11 10:27:22;;;;;;;;;;;6.90;99.90;;;;;;5025350;28;19944;-71
2022/11/11 10:30:14;;;;;;;;;;;6.90;99.90;;;;;;5028086;28;20032;-71
2022/11/11 10:33:02;;;;;;;;;;;6.90;99.90;;;;;;5031530;28;19931;-72
2022/11/11 10:35:49;;;;;;;;;;;6.90;99.90;;;;;;5027472;28;19943;-71
2022/11/11 10:38:36;;;;;;;;;;;6.90;99.90;;;;;;5027524;28;19983;-71
2022/11/11 10:41:23;;;;;;;;;;;7.00;99.90;;;;;;5034665;28;20018;-70
2022/11/11 10:44:19;;;;;;;;;;;7.00;99.90;;;;;;5038173;28;19939;-71
2022/11/11 10:47:08;;;;;;;;;;;7.00;99.90;;;;;;5027646;28;20075;-71
2022/11/11 10:49:58;;;;;;;;;;;7.00;99.90;;;;;;5037109;28;20401;-71
2022/11/11 10:52:48;;;;;;;;;;;7.00;99.90;;;;;;5032710;28;19966;-71
2022/11/11 10:55:35;;;;;;;;;;;7.00;99.90;;;;;;5029194;28;20415;-72
2022/11/11 10:58:22;;;;;;;;;;;7.00;99.90;;;;;;5041878;28;19996;-71
2022/11/11 11:01:10;;;;;;;;;;;7.00;99.90;;;;;;5037922;28;20029;-72
2022/11/11 11:03:57;;;;;;;;;;;7.00;99.90;;;;;;5034530;28;19940;-72
2022/11/11 11:06:46;;;;;;;;;;;7.10;99.90;;;;;;5040166;28;20282;-71
2022/11/11 11:09:35;;;;;;;;;;;7.10;99.90;;;;;;5042441;28;19932;-71
2022/11/11 11:12:22;;;;;;;;;;;7.10;99.90;;;;;;5037690;28;20063;-72
2022/11/11 11:15:10;;;;;;;;;;;7.10;99.90;;;;;;5039621;28;19932;-71
2022/11/11 11:17:57;;;;;;;;;;;7.10;99.90;;;;;;5040206;28;19958;-72
2022/11/11 11:20:55;;;;;;;;;;;7.20;99.90;;;;;;5031172;28;20067;-71
2022/11/11 11:23:42;;;;;;;;;;;7.20;99.90;;;;;;5036680;28;20310;-72
2022/11/11 11:26:42;;;;;;;;;;;7.20;99.90;;;;;;5034614;28;19983;-70
2022/11/11 11:29:28;;;;;;;;;;;7.20;99.90;;;;;;5032731;28;20039;-71
2022/11/11 11:32:15;;;;;;;;;;;7.20;99.90;;;;;;5027840;28;20496;-71
2022/11/11 11:35:00;;;;;;;;;;;7.20;99.90;;;;;;5042295;28;20421;-72
2022/11/11 11:37:50;;;;;;;;;;;7.20;99.90;;;;;;5037717;28;20468;-73
2022/11/11 11:40:46;;;;;;;;;;;7.20;99.90;;;;;;5040838;28;19975;-73
2022/11/11 11:43:33;;;;;;;;;;;7.20;99.90;;;;;;5026411;28;19936;-77
2022/11/11 11:46:20;;;;;;;;;;;7.30;99.90;;;;;;5043292;28;19931;-73
2022/11/11 11:49:15;;;;;;;;;;;7.30;99.90;;;;;;5042589;28;19961;-73
2022/11/11 11:52:05;;;;;;;;;;;7.30;99.90;;;;;;5040978;28;19932;-74
2022/11/11 11:54:55;;;;;;;;;;;7.30;99.90;;;;;;5036022;28;19943;-73
2022/11/11 11:57:53;;;;;;;;;;;7.30;99.90;;;;;;5043105;28;20444;-73
2022/11/11 12:00:43;;;;;;;;;;;7.30;99.90;;;;;;5042871;28;20022;-73
2022/11/11 12:03:40;;;;;;;;;;;7.30;99.90;;;;;;5034596;28;20035;-74
2022/11/11 12:06:29;;;;;;;;;;;7.30;99.90;;;;;;5029125;28;19932;-73
2022/11/11 12:09:21;;;;;;;;;;;7.40;99.90;;;;;;5034672;28;19932;-74
2022/11/11 12:12:11;;;;;;;;;;;7.40;99.90;;;;;;5027904;28;19931;-73
2022/11/11 12:15:01;;;;;;;;;;;7.40;99.90;;;;;;5031412;28;19932;-73
2022/11/11 12:17:53;;;;;;;;;;;7.40;99.90;;;;;;5037795;28;19940;-75
2022/11/11 12:20:41;;;;;;;;;;;7.40;99.90;;;;;;5030836;28;19932;-74
2022/11/11 12:23:37;;;;;;;;;;;7.40;99.90;;;;;;5033454;28;20962;-73
2022/11/11 12:26:25;;;;;;;;;;;7.40;99.90;;;;;;5035107;28;19939;-73
2022/11/11 12:29:15;;;;;;;;;;;7.50;99.90;;;;;;5035590;28;19970;-73
2022/11/11 12:32:20;;;;;;;;;;;7.50;99.90;;;;;;5033518;28;20018;-77
2022/11/11 12:35:17;;;;;;;;;;;7.50;99.90;;;;;;5033807;28;20285;-74
2022/11/11 12:38:09;;;;;;;;;;;7.50;99.90;;;;;;5039912;28;19932;-80
2022/11/11 12:41:00;;;;;;;;;;;7.50;99.90;;;;;;5034661;28;19940;-74
2022/11/11 12:43:49;;;;;;;;;;;7.50;99.90;;;;;;5029950;28;20074;-74
2022/11/11 12:46:45;;;;;;;;;;;7.50;99.90;;;;;;5037268;28;19940;-73
2022/11/11 12:49:45;;;;;;;;;;;7.50;99.90;;;;;;5034911;28;19936;-74
2022/11/11 12:52:36;;;;;;;;;;;7.60;99.90;;;;;;5030858;28;19936;-74
2022/11/11 12:55:24;;;;;;;;;;;7.60;99.90;;;;;;5033369;28;19948;-73
2022/11/11 12:58:20;;;;;;;;;;;7.60;99.90;;;;;;5031548;28;19932;-73
2022/11/11 13:01:16;;;;;;;;;;;7.60;99.90;;;;;;5096575;22;19940;-74
2022/11/11 13:04:08;;;;;;;;;;;7.60;99.90;;;;;;4964963;28;20013;-71
2022/11/11 13:07:03;;;;;;;;;;;7.60;99.90;;;;;;4976221;28;19948;-73
2022/11/11 13:10:00;;;;;;;;;;;7.60;99.90;;;;;;4980764;28;20031;-73
2022/11/11 13:12:48;;;;;;;;;;;7.60;99.90;;;;;;4972472;28;19940;-74
2022/11/11 13:15:33;;;;;;;;;;;7.70;99.90;;;;;;4979538;28;19933;-74
2022/11/11 13:18:20;;;;;;;;;;;7.60;99.90;;;;;;4978852;28;19933;-73
2022/11/11 13:21:08;;;;;;;;;;;7.60;99.90;;;;;;4976040;28;20101;-73
2022/11/11 13:23:54;;;;;;;;;;;7.70;99.90;;;;;;4974075;28;19937;-73
2022/11/11 13:26:43;;;;;;;;;;;7.70;99.90;;;;;;4969069;28;20401;-73
2022/11/11 13:29:35;;;;;;;;;;;7.70;99.90;;;;;;4971797;28;19937;-72
2022/11/11 13:32:24;;;;;;;;;;;7.70;99.90;;;;;;5160410;22;19933;-72
2022/11/11 13:35:18;;;;;;;;;;;7.70;99.90;;;;;;5040629;22;20151;-77
2022/11/11 13:38:04;;;;;;;;;;;7.70;99.90;;;;;;5022707;28;19940;-76
2022/11/11 13:40:53;;;;;;;;;;;7.70;99.90;;;;;;5029999;28;20051;-76
2022/11/11 13:43:41;;;;;;;;;;;7.70;99.90;;;;;;5012984;28;20655;-76
2022/11/11 13:46:31;;;;;;;;;;;7.80;99.90;;;;;;5021899;28;20026;-75
2022/11/11 13:49:23;;;;;;;;;;;7.70;99.90;;;;;;5021404;28;19988;-76
2022/11/11 13:52:20;;;;;;;;;;;7.80;99.90;;;;;;5017047;28;20321;-75
2022/11/11 13:55:07;;;;;;;;;;;7.80;99.90;;;;;;5017019;28;20350;-75
2022/11/11 13:57:54;;;;;;;;;;;7.80;99.90;;;;;;5016438;28;19936;-76
2022/11/11 14:00:40;;;;;;;;;;;7.80;99.90;;;;;;5013923;28;20413;-75
2022/11/11 14:03:30;;;;;;;;;;;7.80;99.90;;;;;;5019071;28;20001;-76
2022/11/11 14:06:48;;;;;;;;;;;7.80;99.90;;;;;;5012715;28;19936;-76
2022/11/11 14:09:52;;;;;;;;;;;7.80;99.90;;;;;;5019304;28;20338;-76
2022/11/11 14:12:39;;;;;;;;;;;7.80;99.90;;;;;;5022583;28;20001;-75
2022/11/11 14:15:34;;;;;;;;;;;7.90;99.90;;;;;;5019836;28;20135;-76
2022/11/11 14:18:46;;;;;;;;;;;7.90;99.90;;;;;;5015009;28;20410;-75
2022/11/11 14:21:59;;;;;;;;;;;7.90;99.90;;;;;;4981434;28;20089;-74
2022/11/11 14:24:45;;;;;;;;;;;7.90;99.90;;;;;;5164359;22;19936;-74
2022/11/11 14:27:31;;;;;;;;;;;7.90;99.90;;;;;;5018274;28;20489;-73
2022/11/11 14:30:32;;;;;;;;;;;7.90;99.90;;;;;;5021100;28;19971;-74
2022/11/11 14:33:23;;;;;;;;;;;8.00;99.90;;;;;;5016940;28;19933;-74
2022/11/11 14:36:14;;;;;;;;;;;7.90;99.90;;;;;;5021760;28;19931;-74
2022/11/11 14:39:06;;;;;;;;;;;7.90;99.90;;;;;;5020878;28;19991;-74
2022/11/11 14:41:52;;;;;;;;;;;7.90;99.90;;;;;;5009819;28;19936;-81
2022/11/11 14:44:41;;;;;;;;;;;7.90;99.90;;;;;;5013003;28;20056;-74
2022/11/11 14:47:34;;;;;;;;;;;8.00;99.90;;;;;;5014377;28;19932;-75
2022/11/11 14:50:38;;;;;;;;;;;8.00;99.90;;;;;;5008479;28;19932;-75
2022/11/11 14:53:31;;;;;;;;;;;8.00;99.90;;;;;;5009853;28;20450;-73
2022/11/11 14:56:18;;;;;;;;;;;8.00;99.90;;;;;;5012090;28;21339;-73
2022/11/11 14:59:06;;;;;;;;;;;8.00;99.90;;;;;;5001523;28;20143;-71
2022/11/11 15:01:53;;;;;;;;;;;8.00;99.90;;;;;;5010685;28;20402;-73
2022/11/11 15:04:39;;;;;;;;;;;8.00;99.90;;;;;;5010798;28;19971;-72
2022/11/11 15:07:29;;;;;;;;;;;8.10;99.90;;;;;;5018076;28;19998;-73
2022/11/11 15:10:20;;;;;;;;;;;8.10;99.90;;;;;;5010531;28;19972;-73
2022/11/11 15:13:24;;;;;;;;;;;8.10;99.90;;;;;;5011100;28;19987;-73
2022/11/11 15:16:15;;;;;;;;;;;8.10;99.90;;;;;;5012041;28;19936;-73
2022/11/11 15:19:19;;;;;;;;;;;8.10;99.90;;;;;;5018191;28;19956;-73
2022/11/11 15:22:07;;;;;;;;;;;8.20;99.90;;;;;;5013025;28;19940;-73
2022/11/11 15:24:56;;;;;;;;;;;8.20;99.90;;;;;;5013718;28;19952;-73
2022/11/11 15:27:47;;;;;;;;;;;8.20;99.90;;;;;;5013068;28;19932;-73
2022/11/11 15:30:44;;;;;;;;;;;8.20;99.90;;;;;;5011003;28;19940;-73
2022/11/11 15:33:36;;;;;;;;;;;8.20;99.90;;;;;;5019927;28;19932;-73
2022/11/11 15:36:34;;;;;;;;;;;8.20;99.90;;;;;;5012148;28;20410;-73
2022/11/11 15:39:21;;;;;;;;;;;8.20;99.90;;;;;;5010056;28;20003;-73
2022/11/11 15:42:11;;;;;;;;;;;8.20;99.90;;;;;;5013377;28;20315;-72
2022/11/11 15:44:59;;;;;;;;;;;8.20;99.90;;;;;;5013669;28;20326;-73
2022/11/11 15:47:45;;;;;;;;;;;8.20;99.90;;;;;;5019222;28;19999;-73
2022/11/11 15:50:31;;;;;;;;;;;8.20;99.90;;;;;;5018794;28;19936;-72
2022/11/11 15:53:21;;;;;;;;;;;8.20;99.90;;;;;;5011444;28;19936;-73
2022/11/11 15:56:08;;;;;;;;;;;8.20;99.90;;;;;;5014982;28;19978;-72
2022/11/11 15:58:54;;;;;;;;;;;8.20;99.90;;;;;;5011330;28;19932;-73
2022/11/11 16:01:41;;;;;;;;;;;8.20;99.90;;;;;;5013181;28;20087;-73
2022/11/11 16:04:26;;;;;;;;;;;8.20;99.90;;;;;;5011259;28;19990;-72
2022/11/11 16:07:16;;;;;;;;;;;8.20;99.90;;;;;;5019238;28;19940;-73
2022/11/11 16:10:06;;;;;;;;;;;8.20;99.90;;;;;;5005472;28;20571;-75
2022/11/11 16:12:55;;;;;;;;;;;8.20;99.90;;;;;;5007068;28;19932;-75
2022/11/11 16:15:43;;;;;;;;;;;8.20;99.90;;;;;;5015788;28;20030;-75
2022/11/11 16:18:32;;;;;;;;;;;8.20;99.90;;;;;;5012848;28;19933;-74
2022/11/11 16:21:19;;;;;;;;;;;8.20;99.90;;;;;;5011564;28;19971;-75
2022/11/11 16:24:09;;;;;;;;;;;8.20;99.90;;;;;;5020926;28;20612;-75
2022/11/11 16:26:55;;;;;;;;;;;8.20;99.90;;;;;;5020608;28;19971;-73
2022/11/11 16:29:41;;;;;;;;;;;8.20;99.90;;;;;;5018978;28;20031;-72
2022/11/11 16:32:34;;;;;;;;;;;8.20;99.90;;;;;;5014722;28;19982;-74
2022/11/11 16:35:29;;;;;;;;;;;8.20;99.90;;;;;;5001420;28;21150;-77
2022/11/11 16:38:30;;;;;;;;;;;8.20;99.90;;;;;;4992521;28;20019;-75
2022/11/11 16:41:25;;;;;;;;;;;8.20;99.90;;;;;;5009978;28;19944;-72
2022/11/11 16:44:29;;;;;;;;;;;8.20;99.90;;;;;;5018092;28;20461;-74
2022/11/11 16:47:34;;;;;;;;;;;8.20;99.90;;;;;;5016300;28;19987;-75
2022/11/11 16:50:22;;;;;;;;;;;8.20;99.90;;;;;;5011628;28;19932;-73
2022/11/11 16:53:07;;;;;;;;;;;8.20;99.90;;;;;;5017159;28;20075;-74
2022/11/11 16:55:53;;;;;;;;;;;8.20;99.90;;;;;;5016019;28;19943;-74
2022/11/11 16:58:40;;;;;;;;;;;8.20;99.90;;;;;;5016126;28;19990;-72
2022/11/11 17:01:25;;;;;;;;;;;8.20;99.90;;;;;;5019555;28;19932;-72
2022/11/11 17:04:11;;;;;;;;;;;8.20;99.90;;;;;;5024416;28;20075;-72
2022/11/11 17:06:59;;;;;;;;;;;8.20;99.90;;;;;;5020595;28;20066;-74
2022/11/11 17:09:44;;;;;;;;;;;8.20;99.90;;;;;;5020865;28;19932;-74
2022/11/11 17:12:31;;;;;;;;;;;8.20;99.90;;;;;;5016201;28;19982;-75
2022/11/11 17:15:17;;;;;;;;;;;8.20;99.90;;;;;;5024635;28;20426;-75
2022/11/11 17:18:02;;;;;;;;;;;8.20;99.90;;;;;;5022635;28;20099;-74
2022/11/11 17:20:47;;;;;;;;;;;8.20;99.90;;;;;;5020308;28;19936;-72
2022/11/11 17:23:35;;;;;;;;;;;8.20;99.90;;;;;;5009983;28;20075;-73
2022/11/11 17:26:20;;;;;;;;;;;8.20;99.90;;;;;;5019826;28;20390;-73
2022/11/11 17:29:05;;;;;;;;;;;8.20;99.90;;;;;;5018267;28;19936;-73
2022/11/11 17:31:50;;;;;;;;;;;8.20;99.90;;;;;;5019926;28;19976;-75
2022/11/11 17:34:35;;;;;;;;;;;8.20;99.90;;;;;;5020844;28;20027;-73
2022/11/11 17:37:21;;;;;;;;;;;8.20;99.90;;;;;;5027199;28;19933;-74
2022/11/11 17:40:08;;;;;;;;;;;8.20;99.90;;;;;;5023149;28;19940;-71